Time;durP1;ratioP1;P1;durP2;ratioP2;P2;SDS_P1;SDS_P2;PMS_P1;PMS_P2;Temp;Humidity;BMP_temperature;BMP_pressure;BME280_temperature;BME280_humidity;BME280_pressure;Samples;Min_cycle;Max_cycle;Signal;HPM_P1;HPM_P2
2021/05/11 00:02:23;;;;;;;4.20;1.60;;;15.30;99.90;;;;;;5034238;28;20452;-56
2021/05/11 00:04:50;;;;;;;1.50;1.33;;;15.20;99.90;;;;;;5034393;28;20445;-56
2021/05/11 00:07:17;;;;;;;1.43;1.33;;;15.30;99.90;;;;;;5033880;28;20455;-56
2021/05/11 00:09:43;;;;;;;1.90;1.70;;;15.20;99.90;;;;;;5024133;28;20453;-56
2021/05/11 00:12:10;;;;;;;2.07;1.70;;;15.20;99.90;;;;;;5027808;28;20456;-56
2021/05/11 00:14:36;;;;;;;1.67;1.57;;;15.10;99.90;;;;;;5034094;28;20449;-56
2021/05/11 00:17:03;;;;;;;1.93;1.53;;;15.00;99.90;;;;;;5033868;28;20507;-56
2021/05/11 00:19:30;;;;;;;1.70;1.60;;;15.00;99.90;;;;;;5033783;28;20453;-56
2021/05/11 00:21:57;;;;;;;3.17;1.53;;;14.90;99.90;;;;;;5034232;28;20539;-56
2021/05/11 00:24:23;;;;;;;1.40;1.30;;;15.00;99.90;;;;;;5033963;28;20534;-56
2021/05/11 00:26:50;;;;;;;1.90;1.77;;;15.00;99.90;;;;;;5033780;28;20456;-56
2021/05/11 00:29:16;;;;;;;2.80;1.50;;;14.90;99.90;;;;;;5033910;28;20448;-56
2021/05/11 00:31:43;;;;;;;2.03;1.30;;;14.90;99.90;;;;;;5033675;28;20448;-56
2021/05/11 00:34:10;;;;;;;2.40;1.60;;;14.80;99.90;;;;;;5033430;28;20472;-56
2021/05/11 00:36:36;;;;;;;1.97;1.60;;;14.80;99.90;;;;;;5033697;28;20828;-56
2021/05/11 00:39:05;;;;;;;1.50;1.40;;;14.90;99.90;;;;;;5033775;28;21001;-56
2021/05/11 00:41:31;;;;;;;1.40;1.30;;;15.00;99.90;;;;;;5034101;28;20456;-56
2021/05/11 00:43:58;;;;;;;1.63;1.53;;;15.00;99.90;;;;;;5075469;22;20491;-51
2021/05/11 00:46:26;;;;;;;1.60;1.50;;;14.90;99.90;;;;;;5072590;28;21017;-51
2021/05/11 00:48:52;;;;;;;2.00;1.60;;;14.80;99.90;;;;;;5072986;28;20534;-51
2021/05/11 00:51:19;;;;;;;1.80;1.70;;;14.60;99.90;;;;;;5073057;28;20447;-51
2021/05/11 00:53:45;;;;;;;1.63;1.53;;;14.50;99.90;;;;;;5072874;28;20463;-51
2021/05/11 00:56:14;;;;;;;1.70;1.40;;;14.40;99.90;;;;;;5072849;28;20451;-51
2021/05/11 00:58:41;;;;;;;2.30;1.33;;;14.40;99.90;;;;;;5073029;28;20510;-51
2021/05/11 01:01:07;;;;;;;1.60;1.50;;;14.50;99.90;;;;;;5072578;28;20473;-51
2021/05/11 01:03:34;;;;;;;1.83;1.30;;;14.50;99.90;;;;;;5072586;28;20471;-50
2021/05/11 01:06:00;;;;;;;1.47;1.37;;;14.50;99.90;;;;;;5072864;28;20462;-51
2021/05/11 01:08:27;;;;;;;1.50;1.40;;;14.60;99.90;;;;;;5073087;28;20477;-51
2021/05/11 01:10:53;;;;;;;3.17;1.40;;;14.60;99.90;;;;;;5073073;28;20497;-51
2021/05/11 01:13:21;;;;;;;1.40;1.30;;;14.70;99.90;;;;;;5072492;28;20470;-51
2021/05/11 01:15:50;;;;;;;3.30;1.63;;;14.40;99.90;;;;;;5072151;28;20447;-51
2021/05/11 01:18:25;;;;;;;1.40;1.30;;;14.40;99.90;;;;;;5072384;28;20483;-51
2021/05/11 01:20:54;;;;;;;1.60;1.40;;;14.40;99.90;;;;;;5071851;28;20480;-50
2021/05/11 01:26:12;;;;;;;1.83;1.70;;;14.40;99.90;;;;;;5046387;28;20434;-51
2021/05/11 01:28:49;;;;;;;2.40;1.83;;;14.40;99.90;;;;;;5072576;28;20439;-51
2021/05/11 01:50:47;;;;;;;2.40;1.87;;;14.00;99.90;;;;;;5069225;28;20443;-51
2021/05/11 01:59:17;;;;;;;3.40;1.77;;;13.90;99.90;;;;;;5009940;28;20844;-51
2021/05/11 02:23:46;;;;;;;3.03;2.73;;;13.50;99.90;;;;;;5071772;28;20442;-50
2021/05/11 02:26:13;;;;;;;3.17;2.60;;;13.60;99.90;;;;;;5071125;28;20489;-50
2021/05/11 02:28:40;;;;;;;2.00;1.90;;;13.30;99.90;;;;;;5071268;28;20845;-51
2021/05/11 02:31:06;;;;;;;1.90;1.80;;;12.90;99.90;;;;;;5051407;28;20435;-51
2021/05/11 02:33:33;;;;;;;2.63;1.60;;;12.90;99.90;;;;;;5064767;28;20463;-51
2021/05/11 02:35:59;;;;;;;2.70;2.00;;;12.90;99.90;;;;;;5071288;28;20438;-51
2021/05/11 02:38:26;;;;;;;1.80;1.70;;;13.10;99.90;;;;;;5071619;28;20483;-51
2021/05/11 02:40:52;;;;;;;3.00;1.80;;;13.40;99.90;;;;;;5071087;28;20457;-51
2021/05/11 02:43:22;;;;;;;1.73;1.63;;;13.50;99.90;;;;;;5071296;28;21046;-51
2021/05/11 02:45:49;;;;;;;2.77;1.70;;;13.30;99.90;;;;;;5070372;28;20454;-51
2021/05/11 02:48:15;;;;;;;2.13;1.90;;;13.40;99.90;;;;;;5071271;28;21013;-51
2021/05/11 02:50:42;;;;;;;4.13;2.30;;;13.40;99.90;;;;;;5071183;28;20458;-51
2021/05/11 02:53:09;;;;;;;3.77;2.00;;;13.50;99.90;;;;;;5071703;28;20466;-51
2021/05/11 02:55:35;;;;;;;2.50;2.30;;;13.40;99.90;;;;;;5071238;28;20443;-51
2021/05/11 02:58:02;;;;;;;3.80;2.80;;;13.60;99.90;;;;;;5071094;28;20581;-51
2021/05/11 03:00:29;;;;;;;3.03;1.80;;;13.50;99.90;;;;;;5070650;28;20450;-51
2021/05/11 03:02:57;;;;;;;4.07;1.93;;;13.60;99.90;;;;;;5071373;28;20451;-51
2021/05/11 03:05:24;;;;;;;1.77;1.67;;;13.50;99.90;;;;;;5071019;28;20505;-51
2021/05/11 03:07:50;;;;;;;1.93;1.60;;;13.70;99.90;;;;;;5071455;28;20824;-51
2021/05/11 03:10:18;;;;;;;1.60;1.50;;;13.80;99.90;;;;;;5070886;28;20964;-51
2021/05/11 03:12:45;;;;;;;2.27;2.07;;;13.60;99.90;;;;;;5070886;28;20446;-51
2021/05/11 03:15:13;;;;;;;1.97;1.77;;;13.60;99.90;;;;;;5071002;28;20454;-51
2021/05/11 03:17:39;;;;;;;2.03;1.80;;;13.60;99.90;;;;;;5071303;28;20504;-50
2021/05/11 03:20:10;;;;;;;1.83;1.70;;;13.60;99.90;;;;;;5071106;28;20496;-50
2021/05/11 03:22:36;;;;;;;1.87;1.67;;;13.50;99.90;;;;;;5071209;28;20442;-51
2021/05/11 03:25:03;;;;;;;2.00;1.80;;;13.50;99.90;;;;;;5070473;28;20475;-50
2021/05/11 03:27:30;;;;;;;3.80;2.13;;;13.30;99.90;;;;;;5070877;28;20451;-51
2021/05/11 03:29:56;;;;;;;3.03;2.63;;;13.10;99.90;;;;;;5070564;28;20453;-50
2021/05/11 03:32:23;;;;;;;2.97;2.20;;;12.90;99.90;;;;;;5070983;28;20558;-50
2021/05/11 03:34:49;;;;;;;7.23;2.40;;;12.90;99.90;;;;;;5070833;28;20489;-50
2021/05/11 03:37:17;;;;;;;3.00;2.70;;;12.80;99.90;;;;;;5070745;28;20462;-50
2021/05/11 03:39:44;;;;;;;3.33;3.03;;;12.90;99.90;;;;;;5070293;28;20450;-50
2021/05/11 03:42:15;;;;;;;3.70;2.93;;;12.90;99.90;;;;;;5070727;28;20453;-50
2021/05/11 03:44:45;;;;;;;4.90;2.80;;;12.80;99.90;;;;;;5074520;28;20514;-50
2021/05/11 03:47:13;;;;;;;7.67;2.40;;;12.80;99.90;;;;;;5071203;28;20451;-51
2021/05/11 03:49:40;;;;;;;7.10;3.40;;;12.80;99.90;;;;;;5074330;28;20534;-50
2021/05/11 03:52:07;;;;;;;4.23;3.20;;;12.80;99.90;;;;;;5073855;28;20512;-50
2021/05/11 03:54:34;;;;;;;3.37;3.07;;;12.70;99.90;;;;;;5073942;28;20469;-50
2021/05/11 03:57:01;;;;;;;3.87;3.50;;;12.80;99.90;;;;;;5074129;28;20442;-50
2021/05/11 03:59:27;;;;;;;3.37;3.07;;;12.80;99.90;;;;;;5074428;28;20478;-50
2021/05/11 04:01:54;;;;;;;3.57;3.27;;;12.90;99.90;;;;;;5074530;28;20450;-51
2021/05/11 04:04:20;;;;;;;5.20;3.80;;;12.90;99.90;;;;;;5074285;28;20848;-50
2021/05/11 04:06:47;;;;;;;8.23;3.80;;;12.90;99.90;;;;;;5073747;28;21023;-50
2021/05/11 04:09:18;;;;;;;4.80;3.73;;;13.00;99.90;;;;;;5073898;28;20443;-50
2021/05/11 04:17:19;;;;;;;4.63;4.23;;;13.10;99.90;;;;;;5056044;28;20518;-50
2021/05/11 04:19:45;;;;;;;4.40;4.00;;;13.20;99.90;;;;;;5074168;28;20450;-50
2021/05/11 04:22:12;;;;;;;3.80;3.50;;;13.20;99.90;;;;;;5073959;28;20465;-50
2021/05/11 04:24:38;;;;;;;6.97;3.93;;;13.20;99.90;;;;;;5073549;28;20467;-50
2021/05/11 04:27:06;;;;;;;5.13;4.60;;;13.20;99.90;;;;;;5073734;28;20447;-50
2021/05/11 04:29:34;;;;;;;6.80;4.30;;;13.30;99.90;;;;;;5073955;28;20450;-51
2021/05/11 04:32:00;;;;;;;4.53;4.13;;;13.50;99.90;;;;;;5073794;28;20504;-51
2021/05/11 04:34:27;;;;;;;3.43;2.77;;;13.60;99.90;;;;;;5072561;28;20470;-50
2021/05/11 04:36:54;;;;;;;2.60;2.40;;;13.70;99.90;;;;;;5073400;28;20451;-50
2021/05/11 04:39:20;;;;;;;2.80;2.03;;;13.80;99.90;;;;;;5073502;28;21015;-50
2021/05/11 04:41:47;;;;;;;3.00;2.30;;;14.00;99.90;;;;;;5073569;28;20458;-50
2021/05/11 04:44:16;;;;;;;4.10;2.80;;;13.90;99.90;;;;;;5073534;28;21007;-50
2021/05/11 04:46:48;;;;;;;6.83;2.70;;;13.80;99.90;;;;;;5072974;28;20451;-50
2021/05/11 04:49:14;;;;;;;4.07;2.20;;;13.70;99.90;;;;;;5073337;28;20463;-50
2021/05/11 04:51:41;;;;;;;3.33;2.00;;;13.60;99.90;;;;;;5073399;28;20512;-50
2021/05/11 04:54:07;;;;;;;5.23;3.17;;;13.80;99.90;;;;;;5073433;28;20478;-51
2021/05/11 04:56:34;;;;;;;3.13;2.50;;;13.70;99.90;;;;;;5072891;28;20442;-50
2021/05/11 04:59:00;;;;;;;3.00;2.30;;;13.50;99.90;;;;;;5072638;28;20478;-51
2021/05/11 05:01:28;;;;;;;2.90;2.60;;;13.50;99.90;;;;;;5072471;28;20439;-50
2021/05/11 05:03:57;;;;;;;3.90;2.63;;;13.30;99.90;;;;;;5072919;28;20474;-51
2021/05/11 05:06:23;;;;;;;2.87;2.60;;;13.30;99.90;;;;;;5072571;28;20558;-50
2021/05/11 05:08:51;;;;;;;2.63;2.43;;;13.30;99.90;;;;;;5072161;28;20447;-51
2021/05/11 05:11:18;;;;;;;3.00;2.70;;;13.30;99.90;;;;;;5073066;28;20447;-51
2021/05/11 05:13:45;;;;;;;3.43;2.70;;;13.30;99.90;;;;;;5072400;28;20557;-51
2021/05/11 05:16:12;;;;;;;4.20;2.13;;;13.40;99.90;;;;;;5056645;28;20897;-51
2021/05/11 05:18:40;;;;;;;3.23;2.83;;;13.40;99.90;;;;;;5072193;28;20479;-50
2021/05/11 05:21:08;;;;;;;2.60;2.40;;;13.50;99.90;;;;;;5072406;28;20477;-50
2021/05/11 05:23:43;;;;;;;4.20;2.97;;;13.60;99.90;;;;;;5072789;28;20520;-50
2021/05/11 05:26:11;;;;;;;3.97;3.03;;;13.60;99.90;;;;;;5072338;28;20819;-50
2021/05/11 05:28:39;;;;;;;2.87;2.57;;;13.90;99.90;;;;;;5072645;28;20447;-51
2021/05/11 05:31:06;;;;;;;2.77;2.20;;;14.10;99.90;;;;;;5071969;28;20546;-52
2021/05/11 05:33:34;;;;;;;3.10;2.27;;;14.10;99.90;;;;;;5072234;28;20474;-52
2021/05/11 05:36:02;;;;;;;2.40;2.20;;;14.30;99.90;;;;;;5069148;28;20463;-52
2021/05/11 05:38:29;;;;;;;4.80;2.57;;;14.40;99.90;;;;;;5064189;28;20470;-51
2021/05/11 05:40:57;;;;;;;2.90;2.57;;;14.40;99.90;;;;;;5060144;28;20450;-51
2021/05/11 05:43:24;;;;;;;3.40;2.43;;;14.50;99.90;;;;;;5071348;28;20482;-51
2021/05/11 05:45:53;;;;;;;3.60;2.63;;;14.40;99.90;;;;;;5071005;28;20447;-51
2021/05/11 05:48:19;;;;;;;4.40;2.57;;;14.30;99.90;;;;;;5054829;28;20997;-51
2021/05/11 05:50:49;;;;;;;2.60;2.33;;;14.20;99.90;;;;;;5063206;28;20454;-51
2021/05/11 05:53:23;;;;;;;2.10;2.00;;;14.30;99.90;;;;;;5072258;28;20470;-51
2021/05/11 05:55:50;;;;;;;2.30;2.10;;;14.30;99.90;;;;;;5071918;28;20446;-51
2021/05/11 05:58:17;;;;;;;2.30;2.00;;;14.40;99.90;;;;;;5072095;28;20570;-51
2021/05/11 06:00:45;;;;;;;2.87;2.33;;;14.70;99.90;;;;;;5072250;28;20473;-51
2021/05/11 06:03:30;;;;;;;2.53;2.07;;;14.70;99.90;;;;;;5084951;28;21004;-51
2021/05/11 06:05:57;;;;;;;2.33;2.10;;;14.70;99.90;;;;;;5091488;28;20529;-51
2021/05/11 06:08:24;;;;;;;5.60;2.60;;;14.70;99.90;;;;;;5092399;28;20442;-51
2021/05/11 06:10:55;;;;;;;3.83;3.10;;;14.70;99.90;;;;;;5092111;28;20450;-51
2021/05/11 06:13:26;;;;;;;2.60;2.40;;;14.50;99.90;;;;;;5092311;28;20465;-51
2021/05/11 06:18:38;;;;;;;2.50;2.30;;;14.40;99.90;;;;;;5071950;28;20999;-51
2021/05/11 06:21:05;;;;;;;2.80;2.60;;;14.30;99.90;;;;;;5072055;28;20447;-51
2021/05/11 06:23:32;;;;;;;3.00;2.40;;;14.50;99.90;;;;;;5068849;28;20487;-51
2021/05/11 06:25:59;;;;;;;3.00;2.40;;;14.60;99.90;;;;;;5056525;28;20458;-51
2021/05/11 06:28:25;;;;;;;4.10;2.60;;;14.70;99.90;;;;;;5060073;28;20443;-51
2021/05/11 06:30:52;;;;;;;4.43;2.47;;;14.80;99.90;;;;;;5071537;28;20960;-51
2021/05/11 06:33:18;;;;;;;7.83;2.40;;;14.90;99.90;;;;;;5070687;28;20976;-51
2021/05/11 06:35:46;;;;;;;2.90;2.17;;;15.10;99.90;;;;;;5071325;28;20811;-51
2021/05/11 06:38:13;;;;;;;3.33;2.63;;;15.80;99.90;;;;;;5071565;28;21003;-52
2021/05/11 06:40:42;;;;;;;3.37;2.10;;;16.60;99.90;;;;;;5080267;28;20450;-52
2021/05/11 06:43:08;;;;;;;3.70;2.30;;;17.70;99.90;;;;;;5091629;28;20482;-52
2021/05/11 06:48:17;;;;;;;3.53;2.43;;;18.90;99.90;;;;;;5088153;28;20514;-52
2021/05/11 06:53:36;;;;;;;7.23;2.63;;;19.70;99.90;;;;;;5065959;28;20450;-52
2021/05/11 06:56:06;;;;;;;2.43;2.23;;;20.30;99.90;;;;;;5068813;28;20541;-53
2021/05/11 06:58:32;;;;;;;3.57;2.77;;;20.50;99.90;;;;;;5070163;28;20557;-52
2021/05/11 07:00:59;;;;;;;3.23;2.30;;;20.00;99.90;;;;;;5090450;22;20510;-56
2021/05/11 07:03:25;;;;;;;2.40;2.20;;;20.50;99.90;;;;;;5065244;28;20458;-55
2021/05/11 07:05:53;;;;;;;2.47;2.27;;;20.60;99.90;;;;;;5064270;28;20444;-55
2021/05/11 07:08:25;;;;;;;3.80;2.70;;;20.50;99.90;;;;;;5064884;28;20531;-56
2021/05/11 07:10:54;;;;;;;3.20;2.58;;;20.00;99.90;;;;;;5058788;28;20915;-55
2021/05/11 07:13:21;;;;;;;2.57;2.37;;;20.40;99.90;;;;;;5070590;28;20196;-55
2021/05/11 07:15:49;;;;;;;2.90;2.30;;;20.60;99.90;;;;;;5070083;28;20446;-55
2021/05/11 07:18:18;;;;;;;2.80;2.30;;;20.50;99.90;;;;;;5071900;28;20482;-55
2021/05/11 07:20:45;;;;;;;2.80;2.60;;;20.50;99.90;;;;;;5074765;28;20467;-55
2021/05/11 07:23:16;;;;;;;3.93;2.60;;;20.70;99.90;;;;;;5074003;28;20443;-55
2021/05/11 07:25:49;;;;;;;3.00;2.80;;;20.40;99.90;;;;;;5074520;28;20446;-55
2021/05/11 07:31:11;;;;;;;2.50;2.30;;;18.70;99.90;;;;;;5074138;28;20902;-54
2021/05/11 07:33:40;;;;;;;3.20;2.90;;;18.40;99.90;;;;;;5074773;28;20869;-55
2021/05/11 07:36:07;;;;;;;3.00;2.70;;;18.40;99.90;;;;;;5074193;28;20446;-56
2021/05/11 07:38:34;;;;;;;3.63;3.07;;;18.40;99.90;;;;;;5074072;28;20531;-54
2021/05/11 07:41:00;;;;;;;3.47;3.17;;;18.40;99.90;;;;;;5074469;28;20470;-57
2021/05/11 07:43:29;;;;;;;3.00;2.80;;;18.10;99.90;;;;;;5074289;28;20476;-57
2021/05/11 08:03:14;;;;;;;3.70;3.40;;;18.90;99.90;;;;;;5074361;28;20433;-54
2021/05/11 08:05:57;;;;;;;3.83;3.47;;;18.80;99.90;;;;;;5074027;28;20546;-55
2021/05/11 08:16:42;;;;;;;3.30;3.10;;;20.60;99.90;;;;;;5072170;28;20450;-55
2021/05/11 08:19:14;;;;;;;2.90;2.70;;;20.80;99.90;;;;;;5073950;28;20514;-55
2021/05/11 08:22:01;;;;;;;7.40;3.07;;;21.40;99.90;;;;;;5073687;28;20469;-55
2021/05/11 08:27:31;;;;;;;3.40;3.10;;;21.70;99.90;;;;;;5072448;28;20484;-55
2021/05/11 08:29:58;;;;;;;6.00;3.90;;;20.90;99.90;;;;;;5072782;28;20872;-56
2021/05/11 08:32:25;;;;;;;3.93;3.63;;;20.20;99.90;;;;;;5073877;28;20451;-55
2021/05/11 08:34:51;;;;;;;4.13;3.67;;;19.20;99.90;;;;;;5068269;28;20516;-55
2021/05/11 08:37:18;;;;;;;4.53;3.27;;;19.30;99.90;;;;;;5070826;28;20940;-56
2021/05/11 08:39:45;;;;;;;4.50;3.37;;;19.80;99.90;;;;;;5073159;28;20505;-56
2021/05/11 08:42:12;;;;;;;5.10;3.43;;;20.20;99.90;;;;;;5072363;28;20508;-55
2021/05/11 08:44:38;;;;;;;4.20;3.67;;;19.60;99.90;;;;;;5072403;28;20451;-55
2021/05/11 08:47:06;;;;;;;4.40;3.60;;;19.30;99.90;;;;;;5073819;28;20478;-55
2021/05/11 08:49:33;;;;;;;3.80;3.50;;;18.80;99.90;;;;;;5073001;28;20940;-55
2021/05/11 08:52:03;;;;;;;3.97;3.67;;;18.80;99.90;;;;;;5053237;28;20448;-56
2021/05/11 09:08:59;;;;;;;4.13;3.80;;;18.10;99.90;;;;;;5072791;28;20512;-55
2021/05/11 09:25:16;;;;;;;4.97;3.90;;;17.40;99.90;;;;;;5072133;28;20441;-54
2021/05/11 09:27:49;;;;;;;5.07;4.60;;;16.80;99.90;;;;;;5072525;28;20450;-55
2021/05/11 09:30:35;;;;;;;4.23;3.83;;;16.90;99.90;;;;;;5072680;28;20475;-55
2021/05/11 09:33:15;;;;;;;4.30;3.90;;;17.30;99.90;;;;;;5072084;28;20455;-54
2021/05/11 09:58:43;;;;;;;5.90;4.20;;;17.80;99.90;;;;;;5072299;28;20497;-55
2021/05/11 10:10:20;;;;;;;4.30;4.00;;;17.70;99.90;;;;;;5072173;28;20999;-55
2021/05/11 10:43:40;;;;;;;9.03;5.00;;;18.10;99.90;;;;;;5054405;28;20792;-56
2021/05/11 10:48:26;;;;;;;5.10;4.60;;;18.90;99.90;;;;;;5071364;28;20424;-56
2021/05/11 10:50:54;;;;;;;5.67;5.17;;;18.90;99.90;;;;;;5070877;28;20478;-56
2021/05/11 10:53:42;;;;;;;5.83;5.20;;;18.90;99.90;;;;;;5077138;28;20450;-56
2021/05/11 10:56:47;;;;;;;6.43;5.77;;;19.20;99.90;;;;;;5077815;28;20545;-56
2021/05/11 10:59:21;;;;;;;6.23;5.37;;;18.60;99.90;;;;;;5077833;28;20556;-55
2021/05/11 11:01:51;;;;;;;5.80;5.10;;;19.10;99.90;;;;;;5077879;28;20546;-56
2021/05/11 11:04:20;;;;;;;5.97;5.30;;;19.10;99.90;;;;;;5078165;28;20453;-57
2021/05/11 11:07:05;;;;;;;6.07;5.47;;;19.00;99.90;;;;;;5077688;28;20829;-57
2021/05/11 11:09:32;;;;;;;5.83;5.33;;;18.60;99.90;;;;;;5077751;28;20452;-57
2021/05/11 11:12:00;;;;;;;7.10;5.30;;;18.60;99.90;;;;;;5077436;28;20480;-56
2021/05/11 11:14:35;;;;;;;6.20;5.30;;;18.40;99.90;;;;;;5077701;28;20447;-56
2021/05/11 11:17:04;;;;;;;5.80;5.30;;;18.40;99.90;;;;;;5077892;28;20540;-56
2021/05/11 11:19:31;;;;;;;6.00;5.40;;;18.30;99.90;;;;;;5077619;28;20489;-56
2021/05/11 11:23:32;;;;;;;6.50;5.90;;;17.90;99.90;;;;;;5076714;28;20447;-56
2021/05/11 11:24:48;;;;;;;6.30;5.67;;;17.70;99.90;;;;;;5077150;28;20499;-56
2021/05/11 11:27:14;;;;;;;6.60;5.60;;;17.50;99.90;;;;;;5077634;28;20442;-56
2021/05/11 11:29:43;;;;;;;8.13;5.07;;;17.20;99.90;;;;;;5077828;28;20805;-56
2021/05/11 11:32:10;;;;;;;8.00;6.20;;;17.10;99.90;;;;;;5074886;28;20461;-56
2021/05/11 11:34:39;;;;;;;5.70;5.20;;;17.00;99.90;;;;;;5077399;28;20204;-56
2021/05/11 11:37:09;;;;;;;6.83;6.07;;;17.00;99.90;;;;;;5078761;28;20476;-56
2021/05/11 11:39:37;;;;;;;6.40;5.80;;;16.90;99.90;;;;;;5077761;28;20490;-56
2021/05/11 11:42:05;;;;;;;6.33;5.73;;;16.80;99.90;;;;;;5077203;28;20454;-56
2021/05/11 11:44:39;;;;;;;6.20;5.13;;;16.80;99.90;;;;;;5077351;28;20455;-57
2021/05/11 11:47:07;;;;;;;7.10;6.40;;;16.90;99.90;;;;;;5076631;28;20451;-57
2021/05/11 11:49:41;;;;;;;5.90;5.40;;;16.50;99.90;;;;;;5077652;28;20438;-56
2021/05/11 11:52:12;;;;;;;6.53;5.10;;;16.50;99.90;;;;;;5077617;28;20544;-56
2021/05/11 11:54:45;;;;;;;7.20;5.30;;;16.70;99.90;;;;;;5076498;28;20429;-57
2021/05/11 12:00:08;;;;;;;8.10;5.70;;;16.80;99.90;;;;;;5077143;28;20507;-56
2021/05/11 12:02:37;;;;;;;5.60;5.10;;;16.80;99.90;;;;;;5076536;28;20447;-56
2021/05/11 12:05:11;;;;;;;5.83;4.60;;;16.80;99.90;;;;;;5073435;28;20868;-57
2021/05/11 12:07:56;;;;;;;5.00;4.60;;;16.90;99.90;;;;;;5073908;28;20450;-57
2021/05/11 12:10:23;;;;;;;7.57;6.13;;;17.20;99.90;;;;;;5074136;28;20470;-57
2021/05/11 12:12:50;;;;;;;6.30;5.70;;;17.40;99.90;;;;;;5074293;28;20458;-57
2021/05/11 12:15:20;;;;;;;6.70;5.80;;;17.40;99.90;;;;;;5073308;28;20443;-57
2021/05/11 12:17:48;;;;;;;7.00;6.30;;;17.30;99.90;;;;;;5054519;28;20451;-57
2021/05/11 12:20:25;;;;;;;9.67;6.33;;;17.20;99.90;;;;;;5068088;28;20486;-56
2021/05/11 12:23:19;;;;;;;6.93;5.93;;;17.00;99.90;;;;;;5064769;28;20500;-57
2021/05/11 12:25:55;;;;;;;7.07;6.37;;;16.90;99.90;;;;;;5028781;28;20996;-57
2021/05/11 12:28:32;;;;;;;6.80;5.97;;;17.00;99.90;;;;;;5073471;28;20439;-57
2021/05/11 12:30:59;;;;;;;9.20;6.10;;;17.00;99.90;;;;;;5074038;28;20470;-57
2021/05/11 12:33:34;;;;;;;5.77;5.23;;;17.10;99.90;;;;;;5074123;28;20447;-57
2021/05/11 12:36:14;;;;;;;7.70;6.03;;;17.10;99.90;;;;;;5074088;28;20443;-57
2021/05/11 12:38:40;;;;;;;6.57;5.97;;;17.10;99.90;;;;;;5073937;28;20474;-57
2021/05/11 12:41:10;;;;;;;7.57;6.83;;;17.10;99.90;;;;;;5073386;28;20501;-57
2021/05/11 12:43:42;;;;;;;7.00;5.90;;;17.10;99.90;;;;;;5073788;28;20483;-57
2021/05/11 12:46:20;;;;;;;8.00;6.53;;;17.30;99.90;;;;;;5073491;28;20455;-56
2021/05/11 12:48:55;;;;;;;9.03;7.00;;;17.30;99.90;;;;;;5073907;28;20446;-57
2021/05/11 12:51:35;;;;;;;13.83;7.10;;;16.90;99.90;;;;;;5073624;28;20470;-57
2021/05/11 12:54:04;;;;;;;9.70;7.93;;;16.70;99.90;;;;;;5073636;28;20441;-56
2021/05/11 12:56:36;;;;;;;9.93;7.20;;;16.40;99.90;;;;;;5072511;28;20897;-57
2021/05/11 12:59:08;;;;;;;10.10;7.80;;;16.20;99.90;;;;;;5073016;28;20501;-57
2021/05/11 13:01:49;;;;;;;11.40;7.70;;;16.00;99.90;;;;;;5080288;22;20541;-51
2021/05/11 13:15:32;;;;;;;9.63;7.87;;;16.80;99.90;;;;;;5051671;28;20447;-52
2021/05/11 13:26:21;;;;;;;7.83;6.93;;;16.40;99.90;;;;;;5052753;28;20419;-51
2021/05/11 13:28:52;;;;;;;8.60;7.70;;;16.50;99.90;;;;;;5052814;28;20444;-52
2021/05/11 13:31:22;;;;;;;8.53;7.63;;;16.30;99.90;;;;;;5052612;28;20551;-52
2021/05/11 13:33:54;;;;;;;7.60;6.90;;;16.20;99.90;;;;;;5052215;28;21088;-51
2021/05/11 13:36:20;;;;;;;8.17;7.07;;;16.40;99.90;;;;;;5052404;28;20444;-52
2021/05/11 13:38:48;;;;;;;7.53;6.73;;;16.60;99.90;;;;;;5052621;28;20483;-51
2021/05/11 13:41:14;;;;;;;10.47;7.60;;;16.80;99.90;;;;;;5052522;28;20468;-52
2021/05/11 13:43:41;;;;;;;9.37;8.47;;;16.80;99.90;;;;;;5052366;28;20451;-52
2021/05/11 13:46:07;;;;;;;10.60;8.80;;;16.60;99.90;;;;;;5052477;28;20452;-52
2021/05/11 13:48:36;;;;;;;11.00;8.80;;;16.60;99.90;;;;;;5052391;28;20443;-51
2021/05/11 13:51:04;;;;;;;10.00;8.97;;;16.50;99.90;;;;;;5052260;28;20992;-51
2021/05/11 13:53:33;;;;;;;10.07;9.07;;;16.50;99.90;;;;;;5052245;28;20972;-51
2021/05/11 13:56:21;;;;;;;9.83;8.67;;;16.60;99.90;;;;;;5052194;28;20529;-52
2021/05/11 14:01:50;;;;;;;10.83;9.33;;;16.70;99.90;;;;;;5018590;28;21091;-52
2021/05/11 14:04:18;;;;;;;10.97;8.80;;;16.50;99.90;;;;;;5052176;28;20454;-52
2021/05/11 14:06:44;;;;;;;11.27;10.10;;;16.50;99.90;;;;;;5051396;28;20447;-52
2021/05/11 14:09:11;;;;;;;13.13;10.67;;;16.50;99.90;;;;;;5052109;28;20863;-51
2021/05/11 14:11:39;;;;;;;10.00;8.97;;;16.20;99.90;;;;;;5052143;28;20463;-51
2021/05/11 14:14:07;;;;;;;6.90;4.87;;;16.10;99.90;;;;;;5052097;28;20447;-51
2021/05/11 14:16:33;;;;;;;4.13;3.83;;;16.10;99.90;;;;;;5051791;28;20497;-51
2021/05/11 14:19:00;;;;;;;1.97;1.87;;;16.10;99.90;;;;;;5051910;28;20480;-51
2021/05/11 14:21:26;;;;;;;1.37;1.27;;;16.10;99.90;;;;;;5052079;28;20463;-51
2021/05/11 14:23:55;;;;;;;1.43;0.90;;;15.80;99.90;;;;;;5051803;28;20447;-52
2021/05/11 14:26:22;;;;;;;1.10;1.00;;;15.40;99.90;;;;;;5051484;28;20547;-51
2021/05/11 14:28:50;;;;;;;1.17;0.90;;;15.20;99.90;;;;;;5051737;28;20808;-51
2021/05/11 14:31:16;;;;;;;1.30;0.60;;;15.10;99.90;;;;;;5051719;28;20475;-51
2021/05/11 14:33:43;;;;;;;2.50;1.30;;;14.70;99.90;;;;;;5051621;28;20443;-51
2021/05/11 14:36:10;;;;;;;1.83;1.57;;;14.50;99.90;;;;;;5051669;28;20444;-52
2021/05/11 14:38:37;;;;;;;0.80;0.80;;;14.50;99.90;;;;;;5051582;28;20466;-51
2021/05/11 14:41:04;;;;;;;0.70;0.60;;;14.40;99.90;;;;;;5051666;28;20498;-51
2021/05/11 14:43:31;;;;;;;0.60;0.60;;;14.30;99.90;;;;;;5051794;28;20494;-51
2021/05/11 14:45:59;;;;;;;1.27;0.50;;;14.40;99.90;;;;;;5051383;28;20459;-51
2021/05/11 14:48:26;;;;;;;1.47;0.73;;;14.50;99.90;;;;;;5051407;28;20455;-51
2021/05/11 14:50:53;;;;;;;1.03;0.90;;;14.60;99.90;;;;;;5051578;28;21015;-51
2021/05/11 14:53:19;;;;;;;5.13;0.97;;;14.70;99.90;;;;;;5051591;28;20459;-51
2021/05/11 14:55:46;;;;;;;0.90;0.80;;;14.80;99.90;;;;;;5050991;28;20448;-51
2021/05/11 14:58:12;;;;;;;1.57;0.80;;;14.90;99.90;;;;;;5050290;28;20448;-51
2021/05/11 15:00:39;;;;;;;1.70;0.90;;;15.00;99.90;;;;;;5049945;28;20492;-51
2021/05/11 15:03:06;;;;;;;0.80;0.70;;;15.00;99.90;;;;;;5051379;28;20447;-51
2021/05/11 15:05:33;;;;;;;1.27;0.70;;;15.00;99.90;;;;;;5051330;28;20498;-51
2021/05/11 15:07:59;;;;;;;1.10;1.00;;;14.90;99.90;;;;;;5051333;28;20481;-52
2021/05/11 15:10:26;;;;;;;2.23;0.90;;;14.80;99.90;;;;;;5049836;28;20464;-51
2021/05/11 15:12:52;;;;;;;1.37;0.90;;;14.70;99.90;;;;;;5051127;28;20454;-51
2021/05/11 15:15:20;;;;;;;1.00;0.90;;;14.50;99.90;;;;;;5051028;28;20447;-51
2021/05/11 15:18:03;;;;;;;1.10;0.60;;;14.50;99.90;;;;;;5051203;28;20960;-51
2021/05/11 15:20:32;;;;;;;1.47;0.90;;;14.50;99.90;;;;;;5051084;28;20544;-51
2021/05/11 15:22:59;;;;;;;1.93;0.93;;;14.40;99.90;;;;;;5051262;28;20538;-52
2021/05/11 15:25:27;;;;;;;1.77;1.00;;;14.50;99.90;;;;;;5050484;28;20550;-51
2021/05/11 15:27:54;;;;;;;1.87;0.60;;;14.50;99.90;;;;;;5050850;28;20447;-51
2021/05/11 15:30:23;;;;;;;3.67;0.80;;;14.40;99.90;;;;;;5051315;28;20464;-51
2021/05/11 15:32:53;;;;;;;0.83;0.83;;;14.20;99.90;;;;;;5051303;28;20529;-51
2021/05/11 15:35:23;;;;;;;0.90;0.70;;;14.10;99.90;;;;;;5050519;28;20459;-51
2021/05/11 15:37:57;;;;;;;0.63;0.50;;;14.00;99.90;;;;;;5051004;28;20462;-51
2021/05/11 15:40:24;;;;;;;0.80;0.60;;;13.70;99.90;;;;;;5053578;28;21013;-51
2021/05/11 15:42:52;;;;;;;2.90;0.80;;;13.50;99.90;;;;;;5055432;28;20448;-51
2021/05/11 15:45:20;;;;;;;2.03;0.73;;;13.50;99.90;;;;;;5054607;28;20846;-51
2021/05/11 15:47:55;;;;;;;0.67;0.60;;;13.50;99.90;;;;;;5054855;28;20479;-51
2021/05/11 15:50:27;;;;;;;0.80;0.80;;;13.60;99.90;;;;;;5054615;28;20463;-51
2021/05/11 15:52:56;;;;;;;1.10;0.90;;;13.60;99.90;;;;;;5054228;28;20448;-51
2021/05/11 15:55:23;;;;;;;1.60;0.73;;;13.60;99.90;;;;;;5053886;28;20472;-51
2021/05/11 15:57:51;;;;;;;0.80;0.80;;;13.40;99.90;;;;;;5054763;28;20456;-51
2021/05/11 16:00:18;;;;;;;1.00;0.80;;;13.40;99.90;;;;;;5054277;28;20487;-51
2021/05/11 16:02:45;;;;;;;0.90;0.70;;;13.50;99.90;;;;;;5054525;28;20481;-51
2021/05/11 16:05:12;;;;;;;2.73;1.10;;;13.40;99.90;;;;;;5054620;28;20455;-51
2021/05/11 16:07:38;;;;;;;4.27;0.80;;;13.40;99.90;;;;;;5053968;28;20900;-51
2021/05/11 16:10:08;;;;;;;2.00;0.87;;;13.40;99.90;;;;;;5054107;28;20447;-51
2021/05/11 16:12:35;;;;;;;1.10;0.60;;;13.40;99.90;;;;;;5053865;28;20478;-51
2021/05/11 16:15:04;;;;;;;0.93;0.80;;;13.40;99.90;;;;;;5053837;28;20452;-51
2021/05/11 16:17:30;;;;;;;2.70;0.97;;;13.30;99.90;;;;;;5054105;28;20452;-51
2021/05/11 16:19:56;;;;;;;1.20;1.10;;;13.30;99.90;;;;;;5054293;28;20812;-51
2021/05/11 16:22:23;;;;;;;1.77;1.10;;;13.40;99.90;;;;;;5053984;28;20863;-51
2021/05/11 16:24:49;;;;;;;1.37;1.27;;;13.30;99.90;;;;;;5053660;28;20969;-51
2021/05/11 16:27:17;;;;;;;1.87;1.67;;;13.30;99.90;;;;;;5053610;28;20804;-51
2021/05/11 16:29:44;;;;;;;5.00;1.87;;;13.30;99.90;;;;;;5053455;28;20502;-51